sensor_id;sensor_type;location;lat;lon;timestamp;P1;durP1;ratioP1;P2;durP2;ratioP2
36105;SDS011;22159;55.736;38.048;2022-07-04T00:00:39;3.70;;;3.13;;
36105;SDS011;22159;55.736;38.048;2022-07-04T00:03:05;3.53;;;3.20;;
36105;SDS011;22159;55.736;38.048;2022-07-04T00:05:32;3.50;;;3.20;;
36105;SDS011;22159;55.736;38.048;2022-07-04T00:07:58;3.15;;;2.95;;
36105;SDS011;22159;55.736;38.048;2022-07-04T00:10:24;3.75;;;3.38;;
36105;SDS011;22159;55.736;38.048;2022-07-04T00:12:50;3.50;;;3.25;;
36105;SDS011;22159;55.736;38.048;2022-07-04T00:15:17;3.05;;;2.85;;
36105;SDS011;22159;55.736;38.048;2022-07-04T00:17:43;3.92;;;3.40;;
36105;SDS011;22159;55.736;38.048;2022-07-04T00:20:10;3.53;;;3.22;;
36105;SDS011;22159;55.736;38.048;2022-07-04T00:22:36;3.45;;;3.10;;
36105;SDS011;22159;55.736;38.048;2022-07-04T00:25:03;3.30;;;3.10;;
36105;SDS011;22159;55.736;38.048;2022-07-04T00:27:29;3.63;;;3.33;;
36105;SDS011;22159;55.736;38.048;2022-07-04T00:29:56;4.15;;;3.47;;
36105;SDS011;22159;55.736;38.048;2022-07-04T00:32:22;3.72;;;3.35;;
36105;SDS011;22159;55.736;38.048;2022-07-04T00:34:48;3.58;;;3.38;;
36105;SDS011;22159;55.736;38.048;2022-07-04T00:37:14;4.47;;;3.42;;
36105;SDS011;22159;55.736;38.048;2022-07-04T00:39:40;3.47;;;3.17;;
36105;SDS011;22159;55.736;38.048;2022-07-04T00:42:07;3.40;;;3.13;;
36105;SDS011;22159;55.736;38.048;2022-07-04T00:44:33;3.70;;;3.40;;
36105;SDS011;22159;55.736;38.048;2022-07-04T00:47:06;3.35;;;3.05;;
36105;SDS011;22159;55.736;38.048;2022-07-04T00:49:33;3.63;;;3.33;;
36105;SDS011;22159;55.736;38.048;2022-07-04T00:51:59;3.17;;;2.88;;
36105;SDS011;22159;55.736;38.048;2022-07-04T00:54:30;4.93;;;3.35;;
36105;SDS011;22159;55.736;38.048;2022-07-04T00:56:57;4.03;;;3.67;;
36105;SDS011;22159;55.736;38.048;2022-07-04T00:59:24;3.78;;;3.25;;
36105;SDS011;22159;55.736;38.048;2022-07-04T01:01:50;3.63;;;3.33;;
36105;SDS011;22159;55.736;38.048;2022-07-04T01:04:16;3.55;;;3.28;;
36105;SDS011;22159;55.736;38.048;2022-07-04T01:06:42;4.03;;;2.67;;
36105;SDS011;22159;55.736;38.048;2022-07-04T01:09:10;3.40;;;3.10;;
36105;SDS011;22159;55.736;38.048;2022-07-04T01:11:36;3.60;;;3.30;;
36105;SDS011;22159;55.736;38.048;2022-07-04T01:14:02;4.38;;;3.10;;
36105;SDS011;22159;55.736;38.048;2022-07-04T01:16:30;4.20;;;3.35;;
36105;SDS011;22159;55.736;38.048;2022-07-04T01:18:56;3.83;;;3.47;;
36105;SDS011;22159;55.736;38.048;2022-07-04T01:21:22;4.78;;;3.78;;
36105;SDS011;22159;55.736;38.048;2022-07-04T01:23:48;3.45;;;3.15;;
36105;SDS011;22159;55.736;38.048;2022-07-04T01:26:14;3.35;;;3.05;;
36105;SDS011;22159;55.736;38.048;2022-07-04T01:28:40;3.05;;;2.85;;
36105;SDS011;22159;55.736;38.048;2022-07-04T01:31:07;3.58;;;3.28;;
36105;SDS011;22159;55.736;38.048;2022-07-04T01:33:33;4.22;;;3.30;;
36105;SDS011;22159;55.736;38.048;2022-07-04T01:35:59;3.90;;;3.20;;
36105;SDS011;22159;55.736;38.048;2022-07-04T01:38:26;3.55;;;3.25;;
36105;SDS011;22159;55.736;38.048;2022-07-04T01:40:52;3.25;;;2.97;;
36105;SDS011;22159;55.736;38.048;2022-07-04T01:43:18;3.53;;;3.22;;
36105;SDS011;22159;55.736;38.048;2022-07-04T01:45:44;3.45;;;3.15;;
36105;SDS011;22159;55.736;38.048;2022-07-04T01:48:11;3.22;;;3.00;;
36105;SDS011;22159;55.736;38.048;2022-07-04T01:50:37;3.42;;;3.13;;
36105;SDS011;22159;55.736;38.048;2022-07-04T01:53:03;3.40;;;3.20;;
36105;SDS011;22159;55.736;38.048;2022-07-04T01:55:30;3.55;;;3.00;;
36105;SDS011;22159;55.736;38.048;2022-07-04T01:57:56;3.72;;;3.42;;
36105;SDS011;22159;55.736;38.048;2022-07-04T02:00:22;3.30;;;3.10;;
36105;SDS011;22159;55.736;38.048;2022-07-04T02:03:07;3.60;;;3.30;;
36105;SDS011;22159;55.736;38.048;2022-07-04T02:05:33;3.63;;;2.88;;
36105;SDS011;22159;55.736;38.048;2022-07-04T02:07:59;2.97;;;2.78;;
36105;SDS011;22159;55.736;38.048;2022-07-04T02:10:25;3.60;;;3.30;;
36105;SDS011;22159;55.736;38.048;2022-07-04T02:12:51;3.50;;;3.20;;
36105;SDS011;22159;55.736;38.048;2022-07-04T02:15:36;4.03;;;3.67;;
36105;SDS011;22159;55.736;38.048;2022-07-04T02:18:04;3.40;;;3.10;;
36105;SDS011;22159;55.736;38.048;2022-07-04T02:20:30;4.22;;;3.83;;
36105;SDS011;22159;55.736;38.048;2022-07-04T02:22:56;4.28;;;3.63;;
36105;SDS011;22159;55.736;38.048;2022-07-04T02:25:22;3.30;;;3.00;;
36105;SDS011;22159;55.736;38.048;2022-07-04T02:27:48;3.30;;;3.00;;
36105;SDS011;22159;55.736;38.048;2022-07-04T02:30:14;4.25;;;3.90;;
36105;SDS011;22159;55.736;38.048;2022-07-04T02:32:40;3.78;;;3.47;;
36105;SDS011;22159;55.736;38.048;2022-07-04T02:35:07;3.85;;;3.55;;
36105;SDS011;22159;55.736;38.048;2022-07-04T02:37:33;3.45;;;3.15;;
36105;SDS011;22159;55.736;38.048;2022-07-04T02:39:59;3.55;;;2.95;;
36105;SDS011;22159;55.736;38.048;2022-07-04T02:42:28;3.60;;;3.30;;
36105;SDS011;22159;55.736;38.048;2022-07-04T02:44:55;4.28;;;3.17;;
36105;SDS011;22159;55.736;38.048;2022-07-04T02:47:21;3.38;;;3.08;;
36105;SDS011;22159;55.736;38.048;2022-07-04T02:49:47;3.58;;;3.28;;
36105;SDS011;22159;55.736;38.048;2022-07-04T02:52:13;3.70;;;3.40;;
36105;SDS011;22159;55.736;38.048;2022-07-04T02:54:40;3.83;;;3.20;;
36105;SDS011;22159;55.736;38.048;2022-07-04T02:57:07;5.20;;;3.67;;
36105;SDS011;22159;55.736;38.048;2022-07-04T02:59:33;3.50;;;3.20;;
36105;SDS011;22159;55.736;38.048;2022-07-04T03:01:59;3.75;;;3.45;;
36105;SDS011;22159;55.736;38.048;2022-07-04T03:04:25;3.65;;;3.35;;
36105;SDS011;22159;55.736;38.048;2022-07-04T03:06:51;3.40;;;3.20;;
36105;SDS011;22159;55.736;38.048;2022-07-04T03:09:17;4.97;;;3.17;;
36105;SDS011;22159;55.736;38.048;2022-07-04T03:11:44;3.75;;;3.45;;
36105;SDS011;22159;55.736;38.048;2022-07-04T03:14:10;3.47;;;3.17;;
36105;SDS011;22159;55.736;38.048;2022-07-04T03:16:36;4.32;;;3.88;;
36105;SDS011;22159;55.736;38.048;2022-07-04T03:19:02;4.80;;;3.55;;
36105;SDS011;22159;55.736;38.048;2022-07-04T03:21:28;4.47;;;3.83;;
36105;SDS011;22159;55.736;38.048;2022-07-04T03:23:54;5.20;;;4.30;;
36105;SDS011;22159;55.736;38.048;2022-07-04T03:26:32;5.30;;;3.97;;
36105;SDS011;22159;55.736;38.048;2022-07-04T03:28:59;3.88;;;3.47;;
36105;SDS011;22159;55.736;38.048;2022-07-04T03:31:25;4.40;;;3.28;;
36105;SDS011;22159;55.736;38.048;2022-07-04T03:33:52;3.67;;;3.38;;
36105;SDS011;22159;55.736;38.048;2022-07-04T03:36:18;4.25;;;3.85;;
36105;SDS011;22159;55.736;38.048;2022-07-04T03:38:44;4.40;;;4.00;;
36105;SDS011;22159;55.736;38.048;2022-07-04T03:41:11;5.07;;;3.80;;
36105;SDS011;22159;55.736;38.048;2022-07-04T03:43:37;4.50;;;3.70;;
36105;SDS011;22159;55.736;38.048;2022-07-04T03:46:03;4.38;;;3.53;;
36105;SDS011;22159;55.736;38.048;2022-07-04T03:48:29;4.47;;;3.83;;
36105;SDS011;22159;55.736;38.048;2022-07-04T03:50:55;4.93;;;4.30;;
36105;SDS011;22159;55.736;38.048;2022-07-04T03:53:21;4.40;;;3.72;;
36105;SDS011;22159;55.736;38.048;2022-07-04T03:55:48;4.78;;;4.30;;
36105;SDS011;22159;55.736;38.048;2022-07-04T03:58:14;5.38;;;3.75;;
36105;SDS011;22159;55.736;38.048;2022-07-04T04:00:40;4.80;;;3.85;;
36105;SDS011;22159;55.736;38.048;2022-07-04T04:03:09;8.10;;;4.55;;
36105;SDS011;22159;55.736;38.048;2022-07-04T04:05:54;5.68;;;4.03;;
36105;SDS011;22159;55.736;38.048;2022-07-04T04:08:20;5.32;;;4.10;;
36105;SDS011;22159;55.736;38.048;2022-07-04T04:10:46;5.93;;;3.85;;
36105;SDS011;22159;55.736;38.048;2022-07-04T04:13:13;4.25;;;3.85;;
36105;SDS011;22159;55.736;38.048;2022-07-04T04:15:39;4.47;;;4.07;;
36105;SDS011;22159;55.736;38.048;2022-07-04T04:18:05;4.80;;;3.97;;
36105;SDS011;22159;55.736;38.048;2022-07-04T04:20:31;6.13;;;4.10;;
36105;SDS011;22159;55.736;38.048;2022-07-04T04:22:57;7.07;;;3.75;;
36105;SDS011;22159;55.736;38.048;2022-07-04T04:25:23;4.72;;;4.32;;
36105;SDS011;22159;55.736;38.048;2022-07-04T04:27:49;5.57;;;4.50;;
36105;SDS011;22159;55.736;38.048;2022-07-04T04:30:15;6.22;;;4.32;;
36105;SDS011;22159;55.736;38.048;2022-07-04T04:32:41;6.90;;;4.10;;
36105;SDS011;22159;55.736;38.048;2022-07-04T04:35:07;4.60;;;4.13;;
36105;SDS011;22159;55.736;38.048;2022-07-04T04:37:33;5.25;;;4.38;;
36105;SDS011;22159;55.736;38.048;2022-07-04T04:39:59;5.75;;;4.18;;
36105;SDS011;22159;55.736;38.048;2022-07-04T04:42:25;6.05;;;4.45;;
36105;SDS011;22159;55.736;38.048;2022-07-04T04:44:51;6.38;;;4.07;;
36105;SDS011;22159;55.736;38.048;2022-07-04T04:47:18;6.75;;;4.30;;
36105;SDS011;22159;55.736;38.048;2022-07-04T04:49:44;6.22;;;4.10;;
36105;SDS011;22159;55.736;38.048;2022-07-04T04:52:10;7.53;;;4.43;;
36105;SDS011;22159;55.736;38.048;2022-07-04T04:54:36;5.88;;;3.97;;
36105;SDS011;22159;55.736;38.048;2022-07-04T04:57:02;5.38;;;4.45;;
36105;SDS011;22159;55.736;38.048;2022-07-04T04:59:29;6.03;;;4.45;;
36105;SDS011;22159;55.736;38.048;2022-07-04T05:01:55;7.95;;;4.75;;
36105;SDS011;22159;55.736;38.048;2022-07-04T05:04:21;7.05;;;4.38;;
36105;SDS011;22159;55.736;38.048;2022-07-04T05:06:48;4.70;;;4.30;;
36105;SDS011;22159;55.736;38.048;2022-07-04T05:09:14;5.97;;;4.35;;
36105;SDS011;22159;55.736;38.048;2022-07-04T05:11:40;4.40;;;4.03;;
36105;SDS011;22159;55.736;38.048;2022-07-04T05:14:06;7.50;;;4.50;;
36105;SDS011;22159;55.736;38.048;2022-07-04T05:16:32;4.97;;;4.20;;
36105;SDS011;22159;55.736;38.048;2022-07-04T05:18:59;4.45;;;4.05;;
36105;SDS011;22159;55.736;38.048;2022-07-04T05:21:26;4.50;;;4.00;;
36105;SDS011;22159;55.736;38.048;2022-07-04T05:23:53;4.60;;;4.20;;
36105;SDS011;22159;55.736;38.048;2022-07-04T05:26:19;5.18;;;3.60;;
36105;SDS011;22159;55.736;38.048;2022-07-04T05:28:45;7.43;;;4.35;;
36105;SDS011;22159;55.736;38.048;2022-07-04T05:31:11;4.50;;;4.15;;
36105;SDS011;22159;55.736;38.048;2022-07-04T05:33:37;5.00;;;4.30;;
36105;SDS011;22159;55.736;38.048;2022-07-04T05:36:03;5.85;;;4.50;;
36105;SDS011;22159;55.736;38.048;2022-07-04T05:38:29;6.75;;;5.10;;
36105;SDS011;22159;55.736;38.048;2022-07-04T05:40:55;6.72;;;4.97;;
36105;SDS011;22159;55.736;38.048;2022-07-04T05:43:21;5.90;;;4.95;;
36105;SDS011;22159;55.736;38.048;2022-07-04T05:45:50;5.30;;;4.80;;
36105;SDS011;22159;55.736;38.048;2022-07-04T05:48:16;6.40;;;4.82;;
36105;SDS011;22159;55.736;38.048;2022-07-04T05:50:42;6.32;;;5.20;;
36105;SDS011;22159;55.736;38.048;2022-07-04T05:53:08;6.72;;;5.88;;
36105;SDS011;22159;55.736;38.048;2022-07-04T05:55:34;8.20;;;6.00;;
36105;SDS011;22159;55.736;38.048;2022-07-04T05:58:00;8.52;;;6.35;;
36105;SDS011;22159;55.736;38.048;2022-07-04T06:00:27;7.95;;;6.28;;
36105;SDS011;22159;55.736;38.048;2022-07-04T06:02:53;7.88;;;6.15;;
36105;SDS011;22159;55.736;38.048;2022-07-04T06:05:19;9.70;;;7.00;;
36105;SDS011;22159;55.736;38.048;2022-07-04T06:07:45;9.15;;;6.28;;
36105;SDS011;22159;55.736;38.048;2022-07-04T06:10:13;8.15;;;6.60;;
36105;SDS011;22159;55.736;38.048;2022-07-04T06:12:39;8.35;;;6.28;;
36105;SDS011;22159;55.736;38.048;2022-07-04T06:15:06;7.18;;;6.45;;
36105;SDS011;22159;55.736;38.048;2022-07-04T06:17:34;10.63;;;6.90;;
36105;SDS011;22159;55.736;38.048;2022-07-04T06:20:00;7.60;;;6.65;;
36105;SDS011;22159;55.736;38.048;2022-07-04T06:22:26;8.00;;;6.85;;
36105;SDS011;22159;55.736;38.048;2022-07-04T06:24:52;8.45;;;6.72;;
36105;SDS011;22159;55.736;38.048;2022-07-04T06:27:18;7.80;;;7.00;;
36105;SDS011;22159;55.736;38.048;2022-07-04T06:29:44;7.85;;;6.75;;
36105;SDS011;22159;55.736;38.048;2022-07-04T06:32:11;11.50;;;6.80;;
36105;SDS011;22159;55.736;38.048;2022-07-04T06:34:37;8.00;;;6.47;;
36105;SDS011;22159;55.736;38.048;2022-07-04T06:37:21;7.47;;;6.65;;
36105;SDS011;22159;55.736;38.048;2022-07-04T06:39:47;7.75;;;7.00;;
36105;SDS011;22159;55.736;38.048;2022-07-04T06:42:13;8.40;;;7.10;;
36105;SDS011;22159;55.736;38.048;2022-07-04T06:44:40;9.02;;;7.32;;
36105;SDS011;22159;55.736;38.048;2022-07-04T06:47:06;8.38;;;6.88;;
36105;SDS011;22159;55.736;38.048;2022-07-04T06:49:33;8.85;;;7.15;;
36105;SDS011;22159;55.736;38.048;2022-07-04T06:51:59;8.77;;;6.13;;
36105;SDS011;22159;55.736;38.048;2022-07-04T06:54:25;9.43;;;6.50;;
36105;SDS011;22159;55.736;38.048;2022-07-04T06:56:51;7.10;;;6.32;;
36105;SDS011;22159;55.736;38.048;2022-07-04T06:59:17;7.80;;;5.93;;
36105;SDS011;22159;55.736;38.048;2022-07-04T07:01:43;7.93;;;6.80;;
36105;SDS011;22159;55.736;38.048;2022-07-04T07:04:09;8.85;;;6.80;;
36105;SDS011;22159;55.736;38.048;2022-07-04T07:06:35;7.20;;;6.47;;
36105;SDS011;22159;55.736;38.048;2022-07-04T07:09:01;8.85;;;7.60;;
36105;SDS011;22159;55.736;38.048;2022-07-04T07:11:27;7.50;;;6.78;;
36105;SDS011;22159;55.736;38.048;2022-07-04T07:13:53;8.95;;;7.25;;
36105;SDS011;22159;55.736;38.048;2022-07-04T07:16:19;9.35;;;8.15;;
36105;SDS011;22159;55.736;38.048;2022-07-04T07:18:47;8.82;;;7.10;;
36105;SDS011;22159;55.736;38.048;2022-07-04T07:21:14;8.65;;;7.75;;
36105;SDS011;22159;55.736;38.048;2022-07-04T07:23:40;8.13;;;7.32;;
36105;SDS011;22159;55.736;38.048;2022-07-04T07:26:07;8.68;;;7.57;;
36105;SDS011;22159;55.736;38.048;2022-07-04T07:28:33;8.40;;;7.38;;
36105;SDS011;22159;55.736;38.048;2022-07-04T07:31:00;7.18;;;6.47;;
36105;SDS011;22159;55.736;38.048;2022-07-04T07:33:27;7.47;;;6.63;;
36105;SDS011;22159;55.736;38.048;2022-07-04T07:35:52;9.68;;;6.90;;
36105;SDS011;22159;55.736;38.048;2022-07-04T07:38:18;7.10;;;6.40;;
36105;SDS011;22159;55.736;38.048;2022-07-04T07:40:45;7.25;;;6.45;;
36105;SDS011;22159;55.736;38.048;2022-07-04T07:43:11;6.63;;;6.00;;
36105;SDS011;22159;55.736;38.048;2022-07-04T07:45:37;7.13;;;6.40;;
36105;SDS011;22159;55.736;38.048;2022-07-04T07:48:03;7.13;;;5.57;;
36105;SDS011;22159;55.736;38.048;2022-07-04T07:50:29;7.78;;;6.05;;
36105;SDS011;22159;55.736;38.048;2022-07-04T07:52:55;8.90;;;6.82;;
36105;SDS011;22159;55.736;38.048;2022-07-04T07:55:21;7.07;;;6.47;;
36105;SDS011;22159;55.736;38.048;2022-07-04T07:57:47;6.38;;;5.88;;
36105;SDS011;22159;55.736;38.048;2022-07-04T08:00:13;7.35;;;6.60;;
36105;SDS011;22159;55.736;38.048;2022-07-04T08:02:39;6.53;;;5.95;;
36105;SDS011;22159;55.736;38.048;2022-07-04T08:05:24;6.97;;;6.25;;
36105;SDS011;22159;55.736;38.048;2022-07-04T08:07:50;7.22;;;6.53;;
36105;SDS011;22159;55.736;38.048;2022-07-04T08:10:16;7.20;;;6.60;;
36105;SDS011;22159;55.736;38.048;2022-07-04T08:12:42;7.13;;;6.47;;
36105;SDS011;22159;55.736;38.048;2022-07-04T08:15:09;7.03;;;6.43;;
36105;SDS011;22159;55.736;38.048;2022-07-04T08:17:35;6.60;;;6.07;;
36105;SDS011;22159;55.736;38.048;2022-07-04T08:20:03;6.63;;;6.13;;
36105;SDS011;22159;55.736;38.048;2022-07-04T08:22:29;7.40;;;6.70;;
36105;SDS011;22159;55.736;38.048;2022-07-04T08:24:55;6.95;;;6.35;;
36105;SDS011;22159;55.736;38.048;2022-07-04T08:27:21;7.40;;;6.80;;
36105;SDS011;22159;55.736;38.048;2022-07-04T08:29:48;6.85;;;6.25;;
36105;SDS011;22159;55.736;38.048;2022-07-04T08:32:14;7.82;;;6.78;;
36105;SDS011;22159;55.736;38.048;2022-07-04T08:34:40;7.43;;;6.72;;
36105;SDS011;22159;55.736;38.048;2022-07-04T08:37:08;6.65;;;6.15;;
36105;SDS011;22159;55.736;38.048;2022-07-04T08:39:34;7.00;;;6.38;;
36105;SDS011;22159;55.736;38.048;2022-07-04T08:42:02;9.48;;;6.07;;
36105;SDS011;22159;55.736;38.048;2022-07-04T08:44:28;11.27;;;6.40;;
36105;SDS011;22159;55.736;38.048;2022-07-04T08:46:56;7.18;;;6.15;;
36105;SDS011;22159;55.736;38.048;2022-07-04T08:49:23;6.78;;;6.07;;
36105;SDS011;22159;55.736;38.048;2022-07-04T08:51:54;7.05;;;6.45;;
36105;SDS011;22159;55.736;38.048;2022-07-04T08:54:22;6.90;;;6.30;;
36105;SDS011;22159;55.736;38.048;2022-07-04T08:57:08;6.13;;;5.63;;
36105;SDS011;22159;55.736;38.048;2022-07-04T08:59:54;6.05;;;5.50;;
36105;SDS011;22159;55.736;38.048;2022-07-04T09:02:21;7.78;;;6.25;;
36105;SDS011;22159;55.736;38.048;2022-07-04T09:04:48;6.03;;;5.55;;
36105;SDS011;22159;55.736;38.048;2022-07-04T09:07:15;6.25;;;5.75;;
36105;SDS011;22159;55.736;38.048;2022-07-04T09:09:42;6.68;;;6.15;;
36105;SDS011;22159;55.736;38.048;2022-07-04T09:12:09;6.35;;;5.85;;
36105;SDS011;22159;55.736;38.048;2022-07-04T09:14:35;6.45;;;5.82;;
36105;SDS011;22159;55.736;38.048;2022-07-04T09:17:02;6.60;;;5.95;;
36105;SDS011;22159;55.736;38.048;2022-07-04T09:19:28;6.45;;;5.95;;
36105;SDS011;22159;55.736;38.048;2022-07-04T09:21:54;5.95;;;5.45;;
36105;SDS011;22159;55.736;38.048;2022-07-04T09:27:05;6.85;;;6.03;;
36105;SDS011;22159;55.736;38.048;2022-07-04T09:29:31;6.25;;;5.65;;
36105;SDS011;22159;55.736;38.048;2022-07-04T09:31:57;5.78;;;5.30;;
36105;SDS011;22159;55.736;38.048;2022-07-04T09:34:23;6.57;;;5.63;;
36105;SDS011;22159;55.736;38.048;2022-07-04T09:36:51;6.65;;;5.80;;
36105;SDS011;22159;55.736;38.048;2022-07-04T09:39:20;6.47;;;5.80;;
36105;SDS011;22159;55.736;38.048;2022-07-04T09:44:23;10.63;;;8.55;;
36105;SDS011;22159;55.736;38.048;2022-07-04T09:46:49;12.55;;;8.88;;
36105;SDS011;22159;55.736;38.048;2022-07-04T09:49:16;10.75;;;8.20;;
36105;SDS011;22159;55.736;38.048;2022-07-04T09:54:12;8.50;;;7.20;;
36105;SDS011;22159;55.736;38.048;2022-07-04T09:56:39;9.63;;;7.10;;
36105;SDS011;22159;55.736;38.048;2022-07-04T09:59:05;7.80;;;6.95;;
36105;SDS011;22159;55.736;38.048;2022-07-04T10:01:32;8.65;;;6.70;;
36105;SDS011;22159;55.736;38.048;2022-07-04T10:03:58;7.25;;;6.55;;
36105;SDS011;22159;55.736;38.048;2022-07-04T10:06:24;7.65;;;6.38;;
36105;SDS011;22159;55.736;38.048;2022-07-04T10:08:50;10.32;;;6.10;;
36105;SDS011;22159;55.736;38.048;2022-07-04T10:11:17;6.80;;;6.20;;
36105;SDS011;22159;55.736;38.048;2022-07-04T10:13:43;6.90;;;6.20;;
36105;SDS011;22159;55.736;38.048;2022-07-04T10:16:10;6.63;;;6.00;;
36105;SDS011;22159;55.736;38.048;2022-07-04T10:18:36;7.97;;;6.00;;
36105;SDS011;22159;55.736;38.048;2022-07-04T10:21:03;6.82;;;5.93;;
36105;SDS011;22159;55.736;38.048;2022-07-04T10:23:29;6.30;;;5.72;;
36105;SDS011;22159;55.736;38.048;2022-07-04T10:25:59;6.20;;;5.60;;
36105;SDS011;22159;55.736;38.048;2022-07-04T10:28:25;7.47;;;5.47;;
36105;SDS011;22159;55.736;38.048;2022-07-04T10:30:52;6.80;;;5.88;;
36105;SDS011;22159;55.736;38.048;2022-07-04T10:33:25;6.22;;;5.13;;
36105;SDS011;22159;55.736;38.048;2022-07-04T10:38:30;5.80;;;5.30;;
36105;SDS011;22159;55.736;38.048;2022-07-04T10:48:51;6.35;;;5.75;;
36105;SDS011;22159;55.736;38.048;2022-07-04T10:54:10;5.68;;;5.15;;
36105;SDS011;22159;55.736;38.048;2022-07-04T10:56:40;6.13;;;5.60;;
36105;SDS011;22159;55.736;38.048;2022-07-04T10:59:28;6.32;;;5.72;;
36105;SDS011;22159;55.736;38.048;2022-07-04T11:07:10;5.32;;;4.90;;
36105;SDS011;22159;55.736;38.048;2022-07-04T11:09:36;5.78;;;5.28;;
36105;SDS011;22159;55.736;38.048;2022-07-04T11:12:03;6.18;;;5.53;;
36105;SDS011;22159;55.736;38.048;2022-07-04T11:17:03;5.97;;;5.10;;
36105;SDS011;22159;55.736;38.048;2022-07-04T11:19:30;5.80;;;5.40;;
36105;SDS011;22159;55.736;38.048;2022-07-04T11:21:56;5.88;;;5.38;;
36105;SDS011;22159;55.736;38.048;2022-07-04T11:24:23;5.82;;;5.32;;
36105;SDS011;22159;55.736;38.048;2022-07-04T11:26:49;7.50;;;5.60;;
36105;SDS011;22159;55.736;38.048;2022-07-04T11:29:15;6.03;;;5.43;;
36105;SDS011;22159;55.736;38.048;2022-07-04T11:31:43;5.43;;;5.03;;
36105;SDS011;22159;55.736;38.048;2022-07-04T11:34:09;5.88;;;5.35;;
36105;SDS011;22159;55.736;38.048;2022-07-04T11:36:36;5.75;;;5.13;;
36105;SDS011;22159;55.736;38.048;2022-07-04T11:39:04;5.18;;;4.78;;
36105;SDS011;22159;55.736;38.048;2022-07-04T11:41:31;5.45;;;5.05;;
36105;SDS011;22159;55.736;38.048;2022-07-04T11:44:17;5.40;;;4.97;;
36105;SDS011;22159;55.736;38.048;2022-07-04T11:47:15;5.50;;;5.10;;
36105;SDS011;22159;55.736;38.048;2022-07-04T11:52:08;5.13;;;4.72;;
36105;SDS011;22159;55.736;38.048;2022-07-04T11:54:34;5.55;;;5.05;;
36105;SDS011;22159;55.736;38.048;2022-07-04T11:57:13;6.45;;;5.40;;
36105;SDS011;22159;55.736;38.048;2022-07-04T11:59:40;5.35;;;4.90;;
36105;SDS011;22159;55.736;38.048;2022-07-04T12:02:13;5.72;;;5.18;;
36105;SDS011;22159;55.736;38.048;2022-07-04T12:04:40;5.38;;;4.97;;
36105;SDS011;22159;55.736;38.048;2022-07-04T12:07:17;4.97;;;4.57;;
36105;SDS011;22159;55.736;38.048;2022-07-04T12:09:44;5.40;;;4.90;;
36105;SDS011;22159;55.736;38.048;2022-07-04T12:12:11;5.88;;;5.03;;
36105;SDS011;22159;55.736;38.048;2022-07-04T12:14:37;5.70;;;5.03;;
36105;SDS011;22159;55.736;38.048;2022-07-04T12:17:13;5.65;;;5.15;;
36105;SDS011;22159;55.736;38.048;2022-07-04T12:19:49;5.28;;;4.88;;
36105;SDS011;22159;55.736;38.048;2022-07-04T12:24:55;5.35;;;4.95;;
36105;SDS011;22159;55.736;38.048;2022-07-04T12:27:21;5.00;;;4.55;;
36105;SDS011;22159;55.736;38.048;2022-07-04T12:29:50;5.22;;;4.72;;
36105;SDS011;22159;55.736;38.048;2022-07-04T12:32:16;4.95;;;4.55;;
36105;SDS011;22159;55.736;38.048;2022-07-04T12:34:42;5.60;;;4.90;;
36105;SDS011;22159;55.736;38.048;2022-07-04T12:37:10;6.65;;;4.82;;
36105;SDS011;22159;55.736;38.048;2022-07-04T12:39:37;5.30;;;4.85;;
36105;SDS011;22159;55.736;38.048;2022-07-04T12:44:37;5.80;;;5.30;;
36105;SDS011;22159;55.736;38.048;2022-07-04T12:47:03;5.00;;;4.70;;
36105;SDS011;22159;55.736;38.048;2022-07-04T12:49:30;5.60;;;5.10;;
36105;SDS011;22159;55.736;38.048;2022-07-04T12:52:06;5.20;;;4.78;;
36105;SDS011;22159;55.736;38.048;2022-07-04T12:54:33;5.13;;;4.57;;
36105;SDS011;22159;55.736;38.048;2022-07-04T12:57:03;7.47;;;5.22;;
36105;SDS011;22159;55.736;38.048;2022-07-04T12:59:30;5.47;;;5.07;;
36105;SDS011;22159;55.736;38.048;2022-07-04T13:01:56;5.47;;;4.97;;
36105;SDS011;22159;55.736;38.048;2022-07-04T13:04:22;5.53;;;5.05;;
36105;SDS011;22159;55.736;38.048;2022-07-04T13:06:48;5.15;;;4.65;;
36105;SDS011;22159;55.736;38.048;2022-07-04T13:09:14;5.53;;;4.97;;
36105;SDS011;22159;55.736;38.048;2022-07-04T13:11:40;5.38;;;4.97;;
36105;SDS011;22159;55.736;38.048;2022-07-04T13:14:25;5.95;;;5.18;;
36105;SDS011;22159;55.736;38.048;2022-07-04T13:16:51;5.18;;;4.78;;
36105;SDS011;22159;55.736;38.048;2022-07-04T13:19:18;5.25;;;4.75;;
36105;SDS011;22159;55.736;38.048;2022-07-04T13:21:45;5.35;;;4.85;;
36105;SDS011;22159;55.736;38.048;2022-07-04T13:24:13;7.25;;;4.72;;
36105;SDS011;22159;55.736;38.048;2022-07-04T13:26:39;5.10;;;4.70;;
36105;SDS011;22159;55.736;38.048;2022-07-04T13:29:07;5.30;;;4.80;;
36105;SDS011;22159;55.736;38.048;2022-07-04T13:31:33;5.35;;;4.95;;
36105;SDS011;22159;55.736;38.048;2022-07-04T13:33:59;5.50;;;5.00;;
36105;SDS011;22159;55.736;38.048;2022-07-04T13:36:26;5.18;;;4.78;;
36105;SDS011;22159;55.736;38.048;2022-07-04T13:38:52;4.82;;;4.53;;
36105;SDS011;22159;55.736;38.048;2022-07-04T13:41:18;5.25;;;4.75;;
36105;SDS011;22159;55.736;38.048;2022-07-04T13:43:44;5.22;;;4.82;;
36105;SDS011;22159;55.736;38.048;2022-07-04T13:46:10;4.88;;;4.47;;
36105;SDS011;22159;55.736;38.048;2022-07-04T13:48:36;5.40;;;4.70;;
36105;SDS011;22159;55.736;38.048;2022-07-04T13:51:02;4.90;;;4.50;;
36105;SDS011;22159;55.736;38.048;2022-07-04T13:53:28;5.18;;;4.68;;
36105;SDS011;22159;55.736;38.048;2022-07-04T13:55:56;5.35;;;4.85;;
36105;SDS011;22159;55.736;38.048;2022-07-04T13:58:22;5.07;;;4.78;;
36105;SDS011;22159;55.736;38.048;2022-07-04T14:00:48;5.60;;;5.20;;
36105;SDS011;22159;55.736;38.048;2022-07-04T14:03:14;5.10;;;4.63;;
36105;SDS011;22159;55.736;38.048;2022-07-04T14:05:41;4.75;;;4.35;;
36105;SDS011;22159;55.736;38.048;2022-07-04T14:08:07;4.90;;;4.50;;
36105;SDS011;22159;55.736;38.048;2022-07-04T14:10:33;5.95;;;4.40;;
36105;SDS011;22159;55.736;38.048;2022-07-04T14:12:59;4.85;;;4.45;;
36105;SDS011;22159;55.736;38.048;2022-07-04T14:15:25;4.72;;;4.43;;
36105;SDS011;22159;55.736;38.048;2022-07-04T14:17:51;4.60;;;4.22;;
36105;SDS011;22159;55.736;38.048;2022-07-04T14:20:17;4.82;;;4.45;;
36105;SDS011;22159;55.736;38.048;2022-07-04T14:22:44;4.85;;;4.53;;
36105;SDS011;22159;55.736;38.048;2022-07-04T14:25:10;5.07;;;4.68;;
36105;SDS011;22159;55.736;38.048;2022-07-04T14:27:36;5.07;;;4.68;;
36105;SDS011;22159;55.736;38.048;2022-07-04T14:30:03;4.78;;;4.38;;
36105;SDS011;22159;55.736;38.048;2022-07-04T14:32:29;5.00;;;4.50;;
36105;SDS011;22159;55.736;38.048;2022-07-04T14:34:55;5.30;;;4.80;;
36105;SDS011;22159;55.736;38.048;2022-07-04T14:37:21;5.00;;;4.70;;
36105;SDS011;22159;55.736;38.048;2022-07-04T14:39:48;5.20;;;4.80;;
36105;SDS011;22159;55.736;38.048;2022-07-04T14:42:14;5.35;;;4.85;;
36105;SDS011;22159;55.736;38.048;2022-07-04T14:44:41;5.38;;;4.88;;
36105;SDS011;22159;55.736;38.048;2022-07-04T14:47:07;5.95;;;4.63;;
36105;SDS011;22159;55.736;38.048;2022-07-04T14:49:33;5.72;;;5.18;;
36105;SDS011;22159;55.736;38.048;2022-07-04T14:51:59;5.65;;;4.72;;
36105;SDS011;22159;55.736;38.048;2022-07-04T14:54:26;5.75;;;5.13;;
36105;SDS011;22159;55.736;38.048;2022-07-04T14:56:52;5.65;;;5.00;;
36105;SDS011;22159;55.736;38.048;2022-07-04T14:59:18;4.95;;;4.55;;
36105;SDS011;22159;55.736;38.048;2022-07-04T15:01:44;4.90;;;4.60;;
36105;SDS011;22159;55.736;38.048;2022-07-04T15:04:10;5.00;;;4.70;;
36105;SDS011;22159;55.736;38.048;2022-07-04T15:06:36;5.78;;;5.25;;
36105;SDS011;22159;55.736;38.048;2022-07-04T15:09:02;5.53;;;4.95;;